Time;durP1;ratioP1;P1;durP2;ratioP2;P2;SDS_P1;SDS_P2;PMS_P1;PMS_P2;Temp;Humidity;BMP_temperature;BMP_pressure;BME280_temperature;BME280_humidity;BME280_pressure;Samples;Min_cycle;Max_cycle;Signal;HPM_P1;HPM_P2
2022/11/12 08:12:40;;;;;;;5.45;4.20;;;;;;;;;;10726140;27;20030;-83
2022/11/12 08:17:41;;;;;;;6.25;4.88;;;;;;;;;;10718376;27;20055;-83
2022/11/12 08:22:42;;;;;;;;;;;;;;;;;;10740075;27;20081;-82
2022/11/12 08:27:55;;;;;;;7.18;4.82;;;;;;;;;;10745679;27;19928;-86
2022/11/12 08:33:00;;;;;;;6.50;4.97;;;;;;;;;;10727128;27;20378;-85
2022/11/12 08:38:41;;;;;;;7.57;5.78;;;;;;;;;;10725869;27;20022;-85
2022/11/12 08:43:48;;;;;;;7.85;5.80;;;;;;;;;;10739006;27;20077;-86
2022/11/12 08:49:17;;;;;;;7.80;5.90;;;;;;;;;;10725833;27;20071;-86
2022/11/12 09:06:23;;;;;;;8.57;6.78;;;;;;;;;;10568104;28;20036;-85
2022/11/12 09:45:38;;;;;;;6.57;5.18;;;;;;;;;;10533167;28;20032;-83
2022/11/12 09:51:11;;;;;;;6.53;4.90;;;;;;;;;;10570245;28;20028;-83
2022/11/12 09:56:48;;;;;;;6.60;5.28;;;;;;;;;;10536671;27;20164;-83
2022/11/12 10:02:04;;;;;;;10.63;7.05;;;;;;;;;;10718933;27;20020;-82
2022/11/12 10:07:25;;;;;;;7.13;5.00;;;;;;;;;;10712268;27;20023;-82
2022/11/12 10:12:49;;;;;;;6.80;4.35;;;;;;;;;;10713699;27;20424;-82
2022/11/12 10:18:08;;;;;;;7.70;4.07;;;;;;;;;;10708958;27;20364;-81
2022/11/12 10:23:44;;;;;;;7.70;4.00;;;;;;;;;;10705488;27;20082;-81
2022/11/12 10:34:39;;;;;;;6.63;3.97;;;;;;;;;;10720721;27;20097;-80
2022/11/12 10:39:52;;;;;;;5.90;3.95;;;;;;;;;;10703005;27;20030;-81
2022/11/12 10:45:14;;;;;;;5.05;3.58;;;;;;;;;;10703894;27;20026;-82
2022/11/12 10:50:19;;;;;;;5.70;3.83;;;;;;;;;;10705629;27;20061;-81
2022/11/12 10:55:32;;;;;;;6.38;4.20;;;;;;;;;;10724213;27;20026;-82
2022/11/12 11:00:33;;;;;;;5.50;3.60;;;;;;;;;;10704811;27;20090;-82
2022/11/12 11:05:48;;;;;;;5.43;3.40;;;;;;;;;;10689242;27;20098;-81
2022/11/12 11:11:16;;;;;;;6.50;4.80;;;;;;;;;;10707331;27;20109;-83
2022/11/12 11:16:19;;;;;;;7.15;3.03;;;;;;;;;;10723338;27;20039;-82
2022/11/12 11:21:26;;;;;;;6.07;3.13;;;;;;;;;;10706848;27;20026;-83
2022/11/12 11:26:46;;;;;;;5.78;4.20;;;;;;;;;;10707842;27;20046;-83
2022/11/12 11:31:59;;;;;;;6.57;4.88;;;;;;;;;;10706951;27;20022;-83
2022/11/12 11:37:09;;;;;;;6.57;4.50;;;;;;;;;;10715156;27;20094;-84
2022/11/12 11:42:13;;;;;;;6.90;3.77;;;;;;;;;;10726987;27;20122;-84
2022/11/12 11:47:34;;;;;;;6.03;3.40;;;;;;;;;;10716841;27;20347;-83
2022/11/12 11:53:01;;;;;;;6.03;3.22;;;;;;;;;;10714155;27;20387;-84
2022/11/12 11:58:02;;;;;;;7.18;5.25;;;;;;;;;;10711122;27;20041;-85
2022/11/12 12:03:06;;;;;;;6.47;3.88;;;;;;;;;;10715377;27;20037;-83
2022/11/12 12:08:08;;;;;;;3.45;2.72;;;;;;;;;;10716405;27;20026;-83
2022/11/12 12:13:15;;;;;;;4.07;2.90;;;;;;;;;;10715893;27;20026;-83
2022/11/12 12:18:16;;;;;;;5.78;3.20;;;;;;;;;;10717542;27;20035;-84
2022/11/12 12:23:20;;;;;;;5.10;3.50;;;;;;;;;;10717501;27;20030;-84
2022/11/12 12:28:33;;;;;;;7.07;3.55;;;;;;;;;;10726732;27;20390;-84
2022/11/12 12:33:55;;;;;;;5.63;3.17;;;;;;;;;;10719504;27;20022;-84
2022/11/12 12:39:21;;;;;;;7.28;4.20;;;;;;;;;;10717734;27;20022;-84
2022/11/12 12:44:58;;;;;;;4.85;3.25;;;;;;;;;;10705300;27;20384;-85
2022/11/12 12:50:03;;;;;;;7.38;3.47;;;;;;;;;;10733508;27;20026;-85
2022/11/12 12:55:05;;;;;;;8.93;3.80;;;;;;;;;;10716103;27;20030;-81
2022/11/12 13:00:30;;;;;;;7.28;3.58;;;;;;;;;;10736052;27;20047;-85
2022/11/12 13:05:34;;;;;;;6.85;5.03;;;;;;;;;;10732201;27;20029;-85
2022/11/12 13:10:46;;;;;;;9.55;7.22;;;;;;;;;;10720131;27;20047;-85
2022/11/12 14:01:10;;;;;;;5.70;4.13;;;;;;;;;;10637132;27;20035;-86
2022/11/12 14:06:37;;;;;;;5.55;3.70;;;;;;;;;;10639149;27;20024;-88
2022/11/12 14:12:06;;;;;;;5.35;4.13;;;;;;;;;;10621653;27;20031;-86
2022/11/12 17:08:00;;;;;;;5.93;4.43;;;;;;;;;;10595112;27;20145;-88
2022/11/12 17:19:27;;;;;;;9.88;7.80;;;;;;;;;;10629584;27;20039;-88
2022/11/12 18:21:55;;;;;;;6.78;5.65;;;;;;;;;;10631368;27;20108;-86
2022/11/12 18:27:34;;;;;;;6.97;5.93;;;;;;;;;;10541539;28;20051;-86
2022/11/12 18:32:35;;;;;;;;;;;;;;;;;;10544676;28;20044;-85
2022/11/12 18:37:36;;;;;;;6.78;5.25;;;;;;;;;;10625020;27;19907;-85
2022/11/12 18:42:37;;;;;;;8.13;5.40;;;;;;;;;;10612306;27;20106;-86
2022/11/12 18:47:38;;;;;;;7.50;5.75;;;;;;;;;;10611902;27;20038;-86
2022/11/12 18:52:39;;;;;;;8.80;5.55;;;;;;;;;;10614288;27;20035;-85
2022/11/12 18:57:40;;;;;;;5.53;4.63;;;;;;;;;;10612862;28;20046;-86
2022/11/12 19:02:42;;;;;;;5.97;4.93;;;;;;;;;;10609709;28;20062;-86
2022/11/12 19:07:43;;;;;;;6.45;5.03;;;;;;;;;;10609670;28;20042;-86
2022/11/12 19:12:44;;;;;;;8.07;5.72;;;;;;;;;;10608657;28;20130;-86
2022/11/12 19:17:45;;;;;;;5.82;5.22;;;;;;;;;;10610300;28;20123;-86
2022/11/12 19:22:46;;;;;;;5.82;4.97;;;;;;;;;;10611224;28;20031;-88
2022/11/12 19:27:47;;;;;;;7.82;6.35;;;;;;;;;;10606566;28;20047;-88
2022/11/12 19:32:48;;;;;;;9.75;7.28;;;;;;;;;;10608678;28;20039;-86
2022/11/12 19:37:49;;;;;;;10.63;8.20;;;;;;;;;;10607163;28;20066;-88
2022/11/12 19:42:50;;;;;;;9.15;7.13;;;;;;;;;;10604570;28;20035;-88
2022/11/12 19:47:52;;;;;;;15.82;11.10;;;;;;;;;;10605487;28;20038;-88
2022/11/12 19:52:53;;;;;;;8.77;6.40;;;;;;;;;;10615535;28;20071;-85
2022/11/12 19:57:54;;;;;;;10.75;8.40;;;;;;;;;;10610652;28;20031;-85
2022/11/12 20:02:55;;;;;;;9.95;6.93;;;;;;;;;;10610066;27;20035;-88
2022/11/12 20:07:56;;;;;;;8.90;6.97;;;;;;;;;;10613309;27;20039;-88
2022/11/12 20:12:57;;;;;;;9.15;7.70;;;;;;;;;;10612835;27;20122;-88
2022/11/12 20:17:58;;;;;;;8.98;7.95;;;;;;;;;;10615548;27;20034;-88
